sensor_id;sensor_type;location;lat;lon;timestamp;pressure;altitude;pressure_sealevel;temperature;humidity
3170;BME280;1596;51.558;6.988;2022-07-04T00:01:40;43249.53;;;-143.13;nan
3170;BME280;1596;51.558;6.988;2022-07-04T00:04:08;43245.44;;;-143.13;nan
3170;BME280;1596;51.558;6.988;2022-07-04T00:06:36;43208.66;;;-143.13;nan
3170;BME280;1596;51.558;6.988;2022-07-04T00:09:04;43186.16;;;-143.13;nan
3170;BME280;1596;51.558;6.988;2022-07-04T00:11:32;43143.25;;;-143.13;nan
3170;BME280;1596;51.558;6.988;2022-07-04T00:14:00;43147.34;;;-143.13;nan
3170;BME280;1596;51.558;6.988;2022-07-04T00:16:27;43098.28;;;-143.13;nan
3170;BME280;1596;51.558;6.988;2022-07-04T00:18:56;43071.72;;;-143.13;nan
3170;BME280;1596;51.558;6.988;2022-07-04T00:21:24;43036.97;;;-143.13;nan
3170;BME280;1596;51.558;6.988;2022-07-04T00:23:52;43016.53;;;-143.13;nan
3170;BME280;1596;51.558;6.988;2022-07-04T00:26:19;43000.19;;;-143.13;nan
3170;BME280;1596;51.558;6.988;2022-07-04T00:28:47;42973.63;;;-143.13;nan
3170;BME280;1596;51.558;6.988;2022-07-04T00:31:15;42928.66;;;-143.13;nan
3170;BME280;1596;51.558;6.988;2022-07-04T00:33:43;42922.53;;;-143.13;nan
3170;BME280;1596;51.558;6.988;2022-07-04T00:36:12;42928.66;;;-143.13;nan
3170;BME280;1596;51.558;6.988;2022-07-04T00:38:39;42920.47;;;-143.13;nan
3170;BME280;1596;51.558;6.988;2022-07-04T00:41:07;42898.00;;;-143.13;nan
3170;BME280;1596;51.558;6.988;2022-07-04T00:43:35;42861.22;;;-143.13;nan
3170;BME280;1596;51.558;6.988;2022-07-04T00:46:04;42875.50;;;-143.13;nan
3170;BME280;1596;51.558;6.988;2022-07-04T00:48:34;42863.25;;;-143.13;nan
3170;BME280;1596;51.558;6.988;2022-07-04T00:51:02;42861.22;;;-143.13;nan
3170;BME280;1596;51.558;6.988;2022-07-04T00:53:31;42818.28;;;-143.13;nan
3170;BME280;1596;51.558;6.988;2022-07-04T00:55:59;42836.69;;;-143.13;nan
3170;BME280;1596;51.558;6.988;2022-07-04T00:58:27;42810.13;;;-143.13;nan
3170;BME280;1596;51.558;6.988;2022-07-04T01:00:56;42787.63;;;-143.13;nan
3170;BME280;1596;51.558;6.988;2022-07-04T01:03:24;42801.94;;;-143.13;nan
3170;BME280;1596;51.558;6.988;2022-07-04T01:05:52;42750.84;;;-143.13;nan
3170;BME280;1596;51.558;6.988;2022-07-04T01:08:20;42734.50;;;-143.13;nan
3170;BME280;1596;51.558;6.988;2022-07-04T01:10:49;42677.28;;;-143.13;nan
3170;BME280;1596;51.558;6.988;2022-07-04T01:13:21;42677.28;;;-143.13;nan
3170;BME280;1596;51.558;6.988;2022-07-04T01:15:50;42618.03;;;-143.13;nan
3170;BME280;1596;51.558;6.988;2022-07-04T01:18:18;42595.53;;;-143.13;nan
3170;BME280;1596;51.558;6.988;2022-07-04T01:20:47;42613.94;;;-143.13;nan
3170;BME280;1596;51.558;6.988;2022-07-04T01:23:15;42587.38;;;-143.13;nan
3170;BME280;1596;51.558;6.988;2022-07-04T01:25:43;42585.34;;;-143.13;nan
3170;BME280;1596;51.558;6.988;2022-07-04T01:28:11;42615.97;;;-143.13;nan
3170;BME280;1596;51.558;6.988;2022-07-04T01:30:40;42589.41;;;-143.13;nan
3170;BME280;1596;51.558;6.988;2022-07-04T01:33:08;42583.28;;;-143.13;nan
3170;BME280;1596;51.558;6.988;2022-07-04T01:35:35;42566.94;;;-143.13;nan
3170;BME280;1596;51.558;6.988;2022-07-04T01:38:05;42550.59;;;-143.13;nan
3170;BME280;1596;51.558;6.988;2022-07-04T01:40:33;42546.50;;;-143.13;nan
3170;BME280;1596;51.558;6.988;2022-07-04T01:43:01;42538.34;;;-143.13;nan
3170;BME280;1596;51.558;6.988;2022-07-04T01:45:29;42491.34;;;-143.13;nan
3170;BME280;1596;51.558;6.988;2022-07-04T01:47:59;42507.69;;;-143.13;nan
3170;BME280;1596;51.558;6.988;2022-07-04T01:50:27;42452.50;;;-143.13;nan
3170;BME280;1596;51.558;6.988;2022-07-04T01:52:55;42436.16;;;-143.13;nan
3170;BME280;1596;51.558;6.988;2022-07-04T01:55:24;42425.94;;;-143.13;nan
3170;BME280;1596;51.558;6.988;2022-07-04T01:57:52;42399.38;;;-143.13;nan
3170;BME280;1596;51.558;6.988;2022-07-04T02:00:20;42354.44;;;-143.13;nan
3170;BME280;1596;51.558;6.988;2022-07-04T02:03:06;42315.59;;;-143.13;nan
3170;BME280;1596;51.558;6.988;2022-07-04T02:05:34;42291.09;;;-143.13;nan
3170;BME280;1596;51.558;6.988;2022-07-04T02:08:03;42256.34;;;-143.13;nan
3170;BME280;1596;51.558;6.988;2022-07-04T02:10:33;42197.09;;;-143.13;nan
3170;BME280;1596;51.558;6.988;2022-07-04T02:13:01;42154.19;;;-143.13;nan
3170;BME280;1596;51.558;6.988;2022-07-04T02:15:29;42107.19;;;-143.13;nan
3170;BME280;1596;51.558;6.988;2022-07-04T02:17:59;42086.75;;;-143.13;nan
3170;BME280;1596;51.558;6.988;2022-07-04T02:20:28;42035.69;;;-143.13;nan
3170;BME280;1596;51.558;6.988;2022-07-04T02:22:58;42023.41;;;-143.13;nan
3170;BME280;1596;51.558;6.988;2022-07-04T02:25:25;42052.03;;;-143.13;nan
3170;BME280;1596;51.558;6.988;2022-07-04T02:27:55;41986.66;;;-143.13;nan
3170;BME280;1596;51.558;6.988;2022-07-04T02:30:23;41945.78;;;-143.13;nan
3170;BME280;1596;51.558;6.988;2022-07-04T02:32:51;41913.09;;;-143.13;nan
3170;BME280;1596;51.558;6.988;2022-07-04T02:35:19;41886.53;;;-143.13;nan
3170;BME280;1596;51.558;6.988;2022-07-04T02:37:47;41839.53;;;-143.13;nan
3170;BME280;1596;51.558;6.988;2022-07-04T02:40:14;41823.19;;;-143.13;nan
3170;BME280;1596;51.558;6.988;2022-07-04T02:42:42;41794.59;;;-143.13;nan
3170;BME280;1596;51.558;6.988;2022-07-04T02:45:11;41735.34;;;-143.13;nan
3170;BME280;1596;51.558;6.988;2022-07-04T02:47:39;41708.78;;;-143.13;nan
3170;BME280;1596;51.558;6.988;2022-07-04T02:50:08;41684.28;;;-143.13;nan
3170;BME280;1596;51.558;6.988;2022-07-04T02:52:36;41614.81;;;-143.13;nan
3170;BME280;1596;51.558;6.988;2022-07-04T02:55:05;41561.69;;;-143.13;nan
3170;BME280;1596;51.558;6.988;2022-07-04T02:57:33;41494.28;;;-143.13;nan
3170;BME280;1596;51.558;6.988;2022-07-04T03:00:05;41410.53;;;-143.13;nan
3170;BME280;1596;51.558;6.988;2022-07-04T03:02:34;41373.75;;;-143.13;nan
3170;BME280;1596;51.558;6.988;2022-07-04T03:05:02;41373.75;;;-143.13;nan
3170;BME280;1596;51.558;6.988;2022-07-04T03:07:30;41383.97;;;-143.13;nan
3170;BME280;1596;51.558;6.988;2022-07-04T03:09:58;41383.97;;;-143.13;nan
3170;BME280;1596;51.558;6.988;2022-07-04T03:12:26;41359.47;;;-143.13;nan
3170;BME280;1596;51.558;6.988;2022-07-04T03:14:54;41332.91;;;-143.13;nan
3170;BME280;1596;51.558;6.988;2022-07-04T03:17:21;41304.31;;;-143.13;nan
3170;BME280;1596;51.558;6.988;2022-07-04T03:19:51;41277.75;;;-143.13;nan
3170;BME280;1596;51.558;6.988;2022-07-04T03:22:19;41238.94;;;-143.13;nan
3170;BME280;1596;51.558;6.988;2022-07-04T03:24:46;41185.84;;;-143.13;nan
3170;BME280;1596;51.558;6.988;2022-07-04T03:29:40;41104.13;;;-143.13;nan
3170;BME280;1596;51.558;6.988;2022-07-04T03:32:09;41071.44;;;-143.13;nan
3170;BME280;1596;51.558;6.988;2022-07-04T03:34:37;41083.72;;;-143.13;nan
3170;BME280;1596;51.558;6.988;2022-07-04T03:37:06;41065.31;;;-143.13;nan
3170;BME280;1596;51.558;6.988;2022-07-04T03:39:34;41077.59;;;-143.13;nan
3170;BME280;1596;51.558;6.988;2022-07-04T03:42:02;41010.19;;;-143.13;nan
3170;BME280;1596;51.558;6.988;2022-07-04T03:44:30;41014.25;;;-143.13;nan
3170;BME280;1596;51.558;6.988;2022-07-04T03:46:58;41006.09;;;-143.13;nan
3170;BME280;1596;51.558;6.988;2022-07-04T03:49:26;40993.84;;;-143.13;nan
3170;BME280;1596;51.558;6.988;2022-07-04T03:51:53;41008.13;;;-143.13;nan
3170;BME280;1596;51.558;6.988;2022-07-04T03:54:23;40953.00;;;-143.13;nan
3170;BME280;1596;51.558;6.988;2022-07-04T03:56:51;40910.09;;;-143.13;nan
3170;BME280;1596;51.558;6.988;2022-07-04T03:59:19;40930.53;;;-143.13;nan
3170;BME280;1596;51.558;6.988;2022-07-04T04:01:47;40916.22;;;-143.13;nan
3170;BME280;1596;51.558;6.988;2022-07-04T04:04:14;40899.88;;;-143.13;nan
3170;BME280;1596;51.558;6.988;2022-07-04T04:07:08;40861.06;;;-143.13;nan
3170;BME280;1596;51.558;6.988;2022-07-04T04:09:38;40826.34;;;-143.13;nan
3170;BME280;1596;51.558;6.988;2022-07-04T04:12:06;40812.06;;;-143.13;nan
3170;BME280;1596;51.558;6.988;2022-07-04T04:14:34;40818.19;;;-143.13;nan
3170;BME280;1596;51.558;6.988;2022-07-04T04:17:03;40828.41;;;-143.13;nan
3170;BME280;1596;51.558;6.988;2022-07-04T04:19:31;40836.56;;;-143.13;nan
3170;BME280;1596;51.558;6.988;2022-07-04T04:21:58;40838.59;;;-143.13;nan
3170;BME280;1596;51.558;6.988;2022-07-04T04:24:26;40834.53;;;-143.13;nan
3170;BME280;1596;51.558;6.988;2022-07-04T04:26:55;40834.53;;;-143.13;nan
3170;BME280;1596;51.558;6.988;2022-07-04T04:29:23;40814.09;;;-143.13;nan
3170;BME280;1596;51.558;6.988;2022-07-04T04:31:51;40842.69;;;-143.13;nan
3170;BME280;1596;51.558;6.988;2022-07-04T04:34:19;40810.03;;;-143.13;nan
3170;BME280;1596;51.558;6.988;2022-07-04T04:36:46;40801.84;;;-143.13;nan
3170;BME280;1596;51.558;6.988;2022-07-04T04:39:14;40748.75;;;-143.13;nan
3170;BME280;1596;51.558;6.988;2022-07-04T04:41:42;40716.06;;;-143.13;nan
3170;BME280;1596;51.558;6.988;2022-07-04T04:44:11;40699.72;;;-143.13;nan
3170;BME280;1596;51.558;6.988;2022-07-04T04:46:38;40756.91;;;-143.13;nan
3170;BME280;1596;51.558;6.988;2022-07-04T04:49:06;40771.22;;;-143.13;nan
3170;BME280;1596;51.558;6.988;2022-07-04T04:51:34;40836.56;;;-143.13;nan
3170;BME280;1596;51.558;6.988;2022-07-04T04:54:01;40942.78;;;-143.13;nan
3170;BME280;1596;51.558;6.988;2022-07-04T04:56:29;40944.81;;;-143.13;nan
3170;BME280;1596;51.558;6.988;2022-07-04T04:58:56;40967.28;;;-143.13;nan
3170;BME280;1596;51.558;6.988;2022-07-04T05:01:25;41145.00;;;-143.13;nan
3170;BME280;1596;51.558;6.988;2022-07-04T05:03:52;41214.44;;;-143.13;nan
3170;BME280;1596;51.558;6.988;2022-07-04T05:06:20;41255.28;;;-143.13;nan
3170;BME280;1596;51.558;6.988;2022-07-04T05:08:48;41243.03;;;-143.13;nan
3170;BME280;1596;51.558;6.988;2022-07-04T05:11:15;41277.75;;;-143.13;nan
3170;BME280;1596;51.558;6.988;2022-07-04T05:13:43;41337.00;;;-143.13;nan
3170;BME280;1596;51.558;6.988;2022-07-04T05:16:11;41320.66;;;-143.13;nan
3170;BME280;1596;51.558;6.988;2022-07-04T05:18:40;41328.81;;;-143.13;nan
3170;BME280;1596;51.558;6.988;2022-07-04T05:21:08;41322.69;;;-143.13;nan
3170;BME280;1596;51.558;6.988;2022-07-04T05:23:36;41386.03;;;-143.13;nan
3170;BME280;1596;51.558;6.988;2022-07-04T05:26:04;41420.75;;;-143.13;nan
3170;BME280;1596;51.558;6.988;2022-07-04T05:28:31;41459.56;;;-143.13;nan
3170;BME280;1596;51.558;6.988;2022-07-04T05:30:59;41469.78;;;-143.13;nan
3170;BME280;1596;51.558;6.988;2022-07-04T05:33:27;41465.69;;;-143.13;nan
3170;BME280;1596;51.558;6.988;2022-07-04T05:35:56;41467.72;;;-143.13;nan
3170;BME280;1596;51.558;6.988;2022-07-04T05:38:24;41504.50;;;-143.13;nan
3170;BME280;1596;51.558;6.988;2022-07-04T05:40:51;41551.50;;;-143.13;nan
3170;BME280;1596;51.558;6.988;2022-07-04T05:43:19;41606.66;;;-143.13;nan
3170;BME280;1596;51.558;6.988;2022-07-04T05:45:48;41757.81;;;-143.13;nan
3170;BME280;1596;51.558;6.988;2022-07-04T05:48:16;41731.25;;;-143.13;nan
3170;BME280;1596;51.558;6.988;2022-07-04T05:50:43;41751.69;;;-143.13;nan
3170;BME280;1596;51.558;6.988;2022-07-04T05:53:13;41790.50;;;-143.13;nan
3170;BME280;1596;51.558;6.988;2022-07-04T05:55:40;41872.22;;;-143.13;nan
3170;BME280;1596;51.558;6.988;2022-07-04T05:58:08;41968.25;;;-143.13;nan
3170;BME280;1596;51.558;6.988;2022-07-04T06:00:36;41986.66;;;-143.13;nan
3170;BME280;1596;51.558;6.988;2022-07-04T06:03:05;42015.25;;;-143.13;nan
3170;BME280;1596;51.558;6.988;2022-07-04T06:05:33;42047.94;;;-143.13;nan
3170;BME280;1596;51.558;6.988;2022-07-04T06:08:01;42203.22;;;-143.13;nan
3170;BME280;1596;51.558;6.988;2022-07-04T06:10:31;42213.44;;;-143.13;nan
3170;BME280;1596;51.558;6.988;2022-07-04T06:12:59;42274.72;;;-143.13;nan
3170;BME280;1596;51.558;6.988;2022-07-04T06:15:27;42366.69;;;-143.13;nan
3170;BME280;1596;51.558;6.988;2022-07-04T06:17:55;42321.72;;;-143.13;nan
3170;BME280;1596;51.558;6.988;2022-07-04T06:20:23;42393.25;;;-143.13;nan
3170;BME280;1596;51.558;6.988;2022-07-04T06:22:50;42399.38;;;-143.13;nan
3170;BME280;1596;51.558;6.988;2022-07-04T06:25:20;42583.28;;;-143.13;nan
3170;BME280;1596;51.558;6.988;2022-07-04T06:27:49;42632.34;;;-143.13;nan
3170;BME280;1596;51.558;6.988;2022-07-04T06:30:18;42656.84;;;-143.13;nan
3170;BME280;1596;51.558;6.988;2022-07-04T06:32:49;42615.97;;;-143.13;nan
3170;BME280;1596;51.558;6.988;2022-07-04T06:35:20;42687.50;;;-143.13;nan
3170;BME280;1596;51.558;6.988;2022-07-04T06:38:08;42773.34;;;-143.13;nan
3170;BME280;1596;51.558;6.988;2022-07-04T06:40:37;42812.16;;;-143.13;nan
3170;BME280;1596;51.558;6.988;2022-07-04T06:43:07;42804.00;;;-143.13;nan
3170;BME280;1596;51.558;6.988;2022-07-04T06:45:36;42834.66;;;-143.13;nan
3170;BME280;1596;51.558;6.988;2022-07-04T06:48:05;42877.56;;;-143.13;nan
3170;BME280;1596;51.558;6.988;2022-07-04T06:50:35;42932.75;;;-143.13;nan
3170;BME280;1596;51.558;6.988;2022-07-04T06:53:05;42898.00;;;-143.13;nan
3170;BME280;1596;51.558;6.988;2022-07-04T06:55:36;43016.53;;;-143.13;nan
3170;BME280;1596;51.558;6.988;2022-07-04T06:58:06;43071.72;;;-143.13;nan
3170;BME280;1596;51.558;6.988;2022-07-04T07:00:36;43010.41;;;-143.13;nan
3170;BME280;1596;51.558;6.988;2022-07-04T07:03:04;43069.66;;;-143.13;nan
3170;BME280;1596;51.558;6.988;2022-07-04T07:05:33;43063.53;;;-143.13;nan
3170;BME280;1596;51.558;6.988;2022-07-04T07:08:03;43116.69;;;-143.13;nan
3170;BME280;1596;51.558;6.988;2022-07-04T07:10:31;43137.13;;;-143.13;nan
3170;BME280;1596;51.558;6.988;2022-07-04T07:12:59;43135.06;;;-143.13;nan
3170;BME280;1596;51.558;6.988;2022-07-04T07:15:29;43069.66;;;-143.13;nan
3170;BME280;1596;51.558;6.988;2022-07-04T07:17:57;43020.63;;;-143.13;nan
3170;BME280;1596;51.558;6.988;2022-07-04T07:20:25;43171.84;;;-143.13;nan
3170;BME280;1596;51.558;6.988;2022-07-04T07:22:53;43294.50;;;-143.13;nan
3170;BME280;1596;51.558;6.988;2022-07-04T07:25:20;43300.63;;;-143.13;nan
3170;BME280;1596;51.558;6.988;2022-07-04T07:27:48;43335.38;;;-143.13;nan
3170;BME280;1596;51.558;6.988;2022-07-04T07:30:16;43359.91;;;-143.13;nan
3170;BME280;1596;51.558;6.988;2022-07-04T07:32:45;43382.38;;;-143.13;nan
3170;BME280;1596;51.558;6.988;2022-07-04T07:35:13;43494.81;;;-143.13;nan
3170;BME280;1596;51.558;6.988;2022-07-04T07:37:41;43392.59;;;-143.13;nan
3170;BME280;1596;51.558;6.988;2022-07-04T07:40:10;43517.28;;;-143.13;nan
3170;BME280;1596;51.558;6.988;2022-07-04T07:42:38;43607.22;;;-143.13;nan
3170;BME280;1596;51.558;6.988;2022-07-04T07:45:07;43597.00;;;-143.13;nan
3170;BME280;1596;51.558;6.988;2022-07-04T07:47:36;43552.03;;;-143.13;nan
3170;BME280;1596;51.558;6.988;2022-07-04T07:50:06;43564.31;;;-143.13;nan
3170;BME280;1596;51.558;6.988;2022-07-04T07:52:36;43568.38;;;-143.13;nan
3170;BME280;1596;51.558;6.988;2022-07-04T07:55:05;43558.16;;;-143.13;nan
3170;BME280;1596;51.558;6.988;2022-07-04T07:57:33;43560.22;;;-143.13;nan
3170;BME280;1596;51.558;6.988;2022-07-04T08:00:04;43502.97;;;-143.13;nan
3170;BME280;1596;51.558;6.988;2022-07-04T08:02:33;43556.13;;;-143.13;nan
3170;BME280;1596;51.558;6.988;2022-07-04T08:05:19;43527.50;;;-143.13;nan
3170;BME280;1596;51.558;6.988;2022-07-04T08:07:47;43439.63;;;-143.13;nan
3170;BME280;1596;51.558;6.988;2022-07-04T08:10:15;43650.16;;;-143.13;nan
3170;BME280;1596;51.558;6.988;2022-07-04T08:12:43;43611.31;;;-143.13;nan
3170;BME280;1596;51.558;6.988;2022-07-04T08:15:11;43654.25;;;-143.13;nan
3170;BME280;1596;51.558;6.988;2022-07-04T08:17:39;43717.59;;;-143.13;nan
3170;BME280;1596;51.558;6.988;2022-07-04T08:20:08;43711.47;;;-143.13;nan
3170;BME280;1596;51.558;6.988;2022-07-04T08:22:38;43689.00;;;-143.13;nan
3170;BME280;1596;51.558;6.988;2022-07-04T08:25:07;43599.03;;;-143.13;nan
3170;BME280;1596;51.558;6.988;2022-07-04T08:27:35;43848.44;;;-143.13;nan
3170;BME280;1596;51.558;6.988;2022-07-04T08:30:04;43815.72;;;-143.13;nan
3170;BME280;1596;51.558;6.988;2022-07-04T08:32:33;43756.44;;;-143.13;nan
3170;BME280;1596;51.558;6.988;2022-07-04T08:35:01;43922.03;;;-143.13;nan
3170;BME280;1596;51.558;6.988;2022-07-04T08:37:30;43944.53;;;-143.13;nan
3170;BME280;1596;51.558;6.988;2022-07-04T08:39:59;43973.13;;;-143.13;nan
3170;BME280;1596;51.558;6.988;2022-07-04T08:42:37;43909.75;;;-143.13;nan
3170;BME280;1596;51.558;6.988;2022-07-04T08:45:07;43973.13;;;-143.13;nan
3170;BME280;1596;51.558;6.988;2022-07-04T08:47:36;43870.94;;;-143.13;nan
3170;BME280;1596;51.558;6.988;2022-07-04T08:50:10;43883.19;;;-143.13;nan
3170;BME280;1596;51.558;6.988;2022-07-04T08:52:42;43821.88;;;-143.13;nan
3170;BME280;1596;51.558;6.988;2022-07-04T08:55:16;43768.72;;;-143.13;nan
3170;BME280;1596;51.558;6.988;2022-07-04T08:58:02;43662.41;;;-143.13;nan
3170;BME280;1596;51.558;6.988;2022-07-04T09:00:50;43838.22;;;-143.13;nan
3170;BME280;1596;51.558;6.988;2022-07-04T09:03:19;43388.50;;;-143.13;nan
3170;BME280;1596;51.558;6.988;2022-07-04T09:05:49;43844.34;;;-143.13;nan
3170;BME280;1596;51.558;6.988;2022-07-04T09:08:18;43932.25;;;-143.13;nan
3170;BME280;1596;51.558;6.988;2022-07-04T09:10:49;43934.28;;;-143.13;nan
3170;BME280;1596;51.558;6.988;2022-07-04T09:13:18;43938.38;;;-143.13;nan
3170;BME280;1596;51.558;6.988;2022-07-04T09:15:49;43877.06;;;-143.13;nan
3170;BME280;1596;51.558;6.988;2022-07-04T09:18:24;43864.78;;;-143.13;nan
3170;BME280;1596;51.558;6.988;2022-07-04T09:20:56;43870.94;;;-143.13;nan
3170;BME280;1596;51.558;6.988;2022-07-04T09:23:28;43967.00;;;-143.13;nan
3170;BME280;1596;51.558;6.988;2022-07-04T09:26:13;43919.97;;;-143.13;nan
3170;BME280;1596;51.558;6.988;2022-07-04T09:28:45;43864.78;;;-143.13;nan
3170;BME280;1596;51.558;6.988;2022-07-04T09:31:22;43764.63;;;-143.13;nan
3170;BME280;1596;51.558;6.988;2022-07-04T09:33:54;43807.56;;;-143.13;nan
3170;BME280;1596;51.558;6.988;2022-07-04T09:36:25;43848.44;;;-143.13;nan
3170;BME280;1596;51.558;6.988;2022-07-04T09:39:10;43844.34;;;-143.13;nan
3170;BME280;1596;51.558;6.988;2022-07-04T09:41:56;43952.69;;;-143.13;nan
3170;BME280;1596;51.558;6.988;2022-07-04T09:44:28;43862.75;;;-143.13;nan
3170;BME280;1596;51.558;6.988;2022-07-04T09:47:21;43674.69;;;-143.13;nan
3170;BME280;1596;51.558;6.988;2022-07-04T09:50:01;43883.19;;;-143.13;nan
3170;BME280;1596;51.558;6.988;2022-07-04T09:52:34;43977.22;;;-143.13;nan
3170;BME280;1596;51.558;6.988;2022-07-04T09:55:12;44054.91;;;-143.13;nan
3170;BME280;1596;51.558;6.988;2022-07-04T09:57:48;43950.66;;;-143.13;nan
3170;BME280;1596;51.558;6.988;2022-07-04T10:00:21;43960.88;;;-143.13;nan
3170;BME280;1596;51.558;6.988;2022-07-04T10:02:55;43883.19;;;-143.13;nan
3170;BME280;1596;51.558;6.988;2022-07-04T10:05:28;43926.13;;;-143.13;nan
3170;BME280;1596;51.558;6.988;2022-07-04T10:07:59;43930.22;;;-143.13;nan
3170;BME280;1596;51.558;6.988;2022-07-04T10:10:33;43915.91;;;-143.13;nan
3170;BME280;1596;51.558;6.988;2022-07-04T10:13:09;43858.66;;;-143.13;nan
3170;BME280;1596;51.558;6.988;2022-07-04T10:15:41;43488.66;;;-143.13;nan
3170;BME280;1596;51.558;6.988;2022-07-04T10:18:10;43605.19;;;-143.13;nan
3170;BME280;1596;51.558;6.988;2022-07-04T10:20:41;44046.72;;;-143.13;nan
3170;BME280;1596;51.558;6.988;2022-07-04T10:23:11;43437.56;;;-143.13;nan
3170;BME280;1596;51.558;6.988;2022-07-04T10:25:39;43525.47;;;-143.13;nan
3170;BME280;1596;51.558;6.988;2022-07-04T10:28:09;44036.50;;;-143.13;nan
3170;BME280;1596;51.558;6.988;2022-07-04T10:30:40;43987.44;;;-143.13;nan
3170;BME280;1596;51.558;6.988;2022-07-04T10:33:10;43924.06;;;-143.13;nan
3170;BME280;1596;51.558;6.988;2022-07-04T10:35:51;43840.25;;;-143.13;nan
3170;BME280;1596;51.558;6.988;2022-07-04T10:38:22;43758.50;;;-143.13;nan
3170;BME280;1596;51.558;6.988;2022-07-04T10:40:54;43778.94;;;-143.13;nan
3170;BME280;1596;51.558;6.988;2022-07-04T10:44:02;43897.50;;;-143.13;nan
3170;BME280;1596;51.558;6.988;2022-07-04T10:46:46;43901.59;;;-143.13;nan
3170;BME280;1596;51.558;6.988;2022-07-04T10:49:24;43940.44;;;-143.13;nan
3170;BME280;1596;51.558;6.988;2022-07-04T10:52:07;43866.84;;;-143.13;nan
3170;BME280;1596;51.558;6.988;2022-07-04T10:54:38;43913.84;;;-143.13;nan
3170;BME280;1596;51.558;6.988;2022-07-04T10:57:14;43783.03;;;-143.13;nan
3170;BME280;1596;51.558;6.988;2022-07-04T11:00:05;43304.72;;;-143.13;nan
3170;BME280;1596;51.558;6.988;2022-07-04T11:02:34;43570.44;;;-143.13;nan
3170;BME280;1596;51.558;6.988;2022-07-04T11:05:05;44026.28;;;-143.13;nan
3170;BME280;1596;51.558;6.988;2022-07-04T11:07:59;43686.94;;;-143.13;nan
3170;BME280;1596;51.558;6.988;2022-07-04T11:10:36;43433.47;;;-143.13;nan
3170;BME280;1596;51.558;6.988;2022-07-04T11:13:17;43482.53;;;-143.13;nan
3170;BME280;1596;51.558;6.988;2022-07-04T11:16:05;43574.53;;;-143.13;nan
3170;BME280;1596;51.558;6.988;2022-07-04T11:18:44;43879.09;;;-143.13;nan
3170;BME280;1596;51.558;6.988;2022-07-04T11:21:17;44016.06;;;-143.13;nan
3170;BME280;1596;51.558;6.988;2022-07-04T11:23:54;43960.88;;;-143.13;nan
3170;BME280;1596;51.558;6.988;2022-07-04T11:26:24;43895.44;;;-143.13;nan
3170;BME280;1596;51.558;6.988;2022-07-04T11:28:53;43870.94;;;-143.13;nan
3170;BME280;1596;51.558;6.988;2022-07-04T11:31:36;43830.03;;;-143.13;nan
3170;BME280;1596;51.558;6.988;2022-07-04T11:34:07;43850.47;;;-143.13;nan
3170;BME280;1596;51.558;6.988;2022-07-04T11:36:37;44026.28;;;-143.13;nan
3170;BME280;1596;51.558;6.988;2022-07-04T11:39:07;43948.59;;;-143.13;nan
3170;BME280;1596;51.558;6.988;2022-07-04T11:41:39;43850.47;;;-143.13;nan
3170;BME280;1596;51.558;6.988;2022-07-04T11:44:29;43701.25;;;-143.13;nan
3170;BME280;1596;51.558;6.988;2022-07-04T11:47:18;43983.34;;;-143.13;nan
3170;BME280;1596;51.558;6.988;2022-07-04T11:49:50;43952.69;;;-143.13;nan
3170;BME280;1596;51.558;6.988;2022-07-04T11:52:21;43950.66;;;-143.13;nan
3170;BME280;1596;51.558;6.988;2022-07-04T11:54:52;44067.19;;;-143.13;nan
3170;BME280;1596;51.558;6.988;2022-07-04T11:57:23;43646.06;;;-143.13;nan
3170;BME280;1596;51.558;6.988;2022-07-04T11:59:58;43674.69;;;-143.13;nan
3170;BME280;1596;51.558;6.988;2022-07-04T12:02:30;43731.91;;;-143.13;nan
3170;BME280;1596;51.558;6.988;2022-07-04T12:05:01;43758.50;;;-143.13;nan
3170;BME280;1596;51.558;6.988;2022-07-04T12:07:32;43868.88;;;-143.13;nan
3170;BME280;1596;51.558;6.988;2022-07-04T12:10:09;44132.59;;;-143.13;nan
3170;BME280;1596;51.558;6.988;2022-07-04T12:12:52;44116.25;;;-143.13;nan
3170;BME280;1596;51.558;6.988;2022-07-04T12:15:23;44009.94;;;-143.13;nan
3170;BME280;1596;51.558;6.988;2022-07-04T12:17:54;43987.44;;;-143.13;nan
3170;BME280;1596;51.558;6.988;2022-07-04T12:20:23;44089.66;;;-143.13;nan
3170;BME280;1596;51.558;6.988;2022-07-04T12:22:54;43940.44;;;-143.13;nan
3170;BME280;1596;51.558;6.988;2022-07-04T12:25:28;43502.97;;;-143.13;nan
3170;BME280;1596;51.558;6.988;2022-07-04T12:28:00;43870.94;;;-143.13;nan
3170;BME280;1596;51.558;6.988;2022-07-04T12:30:32;43868.88;;;-143.13;nan
3170;BME280;1596;51.558;6.988;2022-07-04T12:33:05;43911.81;;;-143.13;nan
3170;BME280;1596;51.558;6.988;2022-07-04T12:35:45;43592.91;;;-143.13;nan
3170;BME280;1596;51.558;6.988;2022-07-04T12:38:17;43727.81;;;-143.13;nan
3170;BME280;1596;51.558;6.988;2022-07-04T12:40:54;44210.28;;;-143.13;nan
3170;BME280;1596;51.558;6.988;2022-07-04T12:46:14;43543.84;;;-143.13;nan
3170;BME280;1596;51.558;6.988;2022-07-04T12:48:57;43597.00;;;-143.13;nan
3170;BME280;1596;51.558;6.988;2022-07-04T12:51:29;44185.75;;;-143.13;nan
3170;BME280;1596;51.558;6.988;2022-07-04T12:54:06;44085.56;;;-143.13;nan
3170;BME280;1596;51.558;6.988;2022-07-04T12:56:38;44087.63;;;-143.13;nan
3170;BME280;1596;51.558;6.988;2022-07-04T12:59:10;44165.31;;;-143.13;nan
3170;BME280;1596;51.558;6.988;2022-07-04T13:01:41;44046.72;;;-143.13;nan
3170;BME280;1596;51.558;6.988;2022-07-04T13:04:11;43411.00;;;-143.13;nan
3170;BME280;1596;51.558;6.988;2022-07-04T13:06:40;43979.28;;;-143.13;nan
3170;BME280;1596;51.558;6.988;2022-07-04T13:09:08;44198.03;;;-143.13;nan
3170;BME280;1596;51.558;6.988;2022-07-04T13:11:37;44173.50;;;-143.13;nan
3170;BME280;1596;51.558;6.988;2022-07-04T13:14:23;44083.53;;;-143.13;nan
3170;BME280;1596;51.558;6.988;2022-07-04T13:16:50;43351.72;;;-143.13;nan
3170;BME280;1596;51.558;6.988;2022-07-04T13:19:20;44232.78;;;-143.13;nan
3170;BME280;1596;51.558;6.988;2022-07-04T13:21:47;44085.56;;;-143.13;nan
3170;BME280;1596;51.558;6.988;2022-07-04T13:24:15;44071.25;;;-143.13;nan
3170;BME280;1596;51.558;6.988;2022-07-04T13:26:43;43339.47;;;-143.13;nan
3170;BME280;1596;51.558;6.988;2022-07-04T13:29:11;43462.09;;;-143.13;nan
3170;BME280;1596;51.558;6.988;2022-07-04T13:31:38;44081.50;;;-143.13;nan
3170;BME280;1596;51.558;6.988;2022-07-04T13:34:07;43971.09;;;-143.13;nan
3170;BME280;1596;51.558;6.988;2022-07-04T13:36:36;44071.25;;;-143.13;nan
3170;BME280;1596;51.558;6.988;2022-07-04T13:39:04;43956.78;;;-143.13;nan
3170;BME280;1596;51.558;6.988;2022-07-04T13:41:32;43962.91;;;-143.13;nan
3170;BME280;1596;51.558;6.988;2022-07-04T13:44:03;43936.34;;;-143.13;nan
3170;BME280;1596;51.558;6.988;2022-07-04T13:46:32;43907.72;;;-143.13;nan